^^
Station Historical Data
Daily Summary for May 29, 2017 Units:  English    Metric   Both
« Previous Day
Next Day »
Daily Weekly Monthly Yearly Custom
  High: Low: Average:
Temperature: 57.8 °F 53.4 °F 54.8 °F
Dew Point: 54.3 °F 51.5 °F 52.5 °F
Humidity: 95% 80% 92%
Wind Speed: 2.0mph 0.0mph 0.3mph
Wind Gust: 8.0mph - -
Wind- - SW
Pressure: 30.11 in 29.88 in -
Precipitation: 0.33 in    
Historical Graphs
 
 
Tabular Data for May 29, 2017
Time Temperature Dew Point Pressure Wind Wind Speed Wind Gust Humidity Rainfall Rate (Hourly) Conditions
00:00 57.8 °F 51.7 °F 29.93 in Calm   4.0 mph 80% 0.00 in CLR
00:15 57.7 °F 51.9 °F 29.93 in Calm   2.0 mph 81% 0.00 in SCT
00:30 57.7 °F 51.9 °F 29.93 in Calm   4.0 mph 81% 0.00 in SCT
00:45 57.6 °F 51.8 °F 29.92 in Calm   4.0 mph 81% 0.00 in SCT
01:00 57.5 °F 51.7 °F 29.92 in Calm   3.0 mph 81% 0.00 in SCT
02:15 57.2 °F 52.1 °F 29.91 in Calm   2.0 mph 83% 0.00 in SCT
02:30 57.1 °F 52.0 °F 29.91 in Calm   3.0 mph 83% 0.00 in SCT
02:45 57.0 °F 52.2 °F 29.90 in Calm   2.0 mph 84% 0.00 in SCT
03:00 56.8 °F 52.0 °F 29.90 in Calm   3.0 mph 84% 0.00 in SCT
03:15 56.7 °F 52.2 °F 29.90 in Calm   3.0 mph 85% 0.00 in OVC
03:30 56.4 °F 52.3 °F 29.89 in Calm   3.0 mph 86% 0.00 in OVC
03:45 56.1 °F 52.3 °F 29.88 in South 1.0 mph 2.0 mph 87% 0.00 in OVC
04:00 55.9 °F 52.1 °F 29.88 in Calm   3.0 mph 87% 0.00 in OVC
04:15 55.8 °F 52.3 °F 29.90 in NNW 1.0 mph 5.0 mph 88% 0.01 in RA
04:30 55.1 °F 52.5 °F 29.90 in Calm   3.0 mph 91% 0.05 in RA
04:45 54.8 °F 52.8 °F 29.90 in Calm   2.0 mph 93% 0.02 in RA
05:00 54.6 °F 52.6 °F 29.89 in Calm   1.0 mph 93% 0.01 in SCT
05:15 54.5 °F 52.8 °F 29.90 in Calm   2.0 mph 94% 0.00 in -RA
05:30 54.4 °F 52.7 °F 29.90 in Calm   3.0 mph 94% 0.00 in -RA
05:45 54.4 °F 52.7 °F 29.90 in WNW 1.0 mph 2.0 mph 94% 0.00 in -RA
06:00 54.3 °F 52.9 °F 29.90 in Calm   5.0 mph 95% 0.00 in -RA
06:15 54.3 °F 52.9 °F 29.90 in WSW 1.0 mph 4.0 mph 95% 0.00 in -RA
06:30 54.5 °F 53.1 °F 29.91 in NW 1.0 mph 3.0 mph 95% 0.00 in -RA
06:45 54.4 °F 53.0 °F 29.91 in Calm   6.0 mph 95% 0.00 in -RA
07:00 54.5 °F 53.1 °F 29.91 in Calm   2.0 mph 95% 0.00 in -RA
07:15 54.6 °F 53.2 °F 29.90 in NW 2.0 mph 6.0 mph 95% 0.00 in -RA
07:30 54.7 °F 53.3 °F 29.90 in SSE 1.0 mph 5.0 mph 95% 0.00 in -RA
07:45 54.7 °F 53.3 °F 29.91 in NW 2.0 mph 3.0 mph 95% 0.00 in -RA
08:00 54.7 °F 53.3 °F 29.92 in ENE 1.0 mph 8.0 mph 95% 0.01 in -RA
08:15 54.6 °F 53.2 °F 29.91 in NNE 1.0 mph 5.0 mph 95% 0.00 in -RA
08:30 54.5 °F 53.1 °F 29.92 in Calm   4.0 mph 95% 0.00 in -RA
08:45 54.5 °F 52.8 °F 29.92 in Calm   8.0 mph 94% 0.00 in -RA
09:15 54.6 °F 52.9 °F 29.93 in North 1.0 mph 5.0 mph 94% 0.00 in OVC
09:30 54.9 °F 53.2 °F 29.92 in Calm   7.0 mph 94% 0.00 in OVC
09:45 54.7 °F 52.7 °F 29.93 in North 2.0 mph 5.0 mph 93% 0.00 in OVC
10:00 54.7 °F 53.0 °F 29.93 in Calm   3.0 mph 94% 0.00 in OVC
10:15 54.5 °F 52.5 °F 29.94 in North 1.0 mph 5.0 mph 93% 0.00 in -DZ
10:30 54.6 °F 52.6 °F 29.93 in WNW 1.0 mph 6.0 mph 93% 0.01 in -DZ
10:45 54.4 °F 52.7 °F 29.95 in SW 1.0 mph 4.0 mph 94% 0.04 in -DZ
11:00 54.2 °F 52.5 °F 29.96 in WSW 1.0 mph 3.0 mph 94% 0.02 in -DZ
11:15 53.4 °F 51.7 °F 29.96 in Calm   5.0 mph 94% 0.01 in -RA
11:30 53.5 °F 51.8 °F 29.96 in Calm   6.0 mph 94% 0.02 in -RA
11:45 53.5 °F 51.9 °F 29.95 in SW 1.0 mph 3.0 mph 94% 0.00 in -RA
12:00 54.1 °F 52.7 °F 29.97 in Calm   4.0 mph 95% 0.08 in -RA
12:15 53.5 °F 51.8 °F 29.99 in Calm   3.0 mph 94% 0.03 in -RA
12:30 53.7 °F 52.3 °F 30.00 in Calm   2.0 mph 95% 0.02 in -RA
12:45 54.0 °F 52.6 °F 29.99 in Calm   2.0 mph 95% 0.00 in -RA
13:00 55.6 °F 54.1 °F 29.98 in West 1.0 mph 3.0 mph 95% 0.00 in -RA
13:15 56.0 °F 54.3 °F 29.99 in Calm   4.0 mph 94% 0.00 in -RA
13:30 55.4 °F 53.4 °F 29.99 in NW 1.0 mph 4.0 mph 93% 0.00 in -RA
13:45 55.1 °F 53.1 °F 30.00 in Calm   3.0 mph 93% 0.00 in -RA
14:00 54.6 °F 52.6 °F 30.01 in Calm   4.0 mph 93% 0.00 in -RA
14:15 54.6 °F 52.9 °F 30.01 in Calm   3.0 mph 94% 0.00 in OVC
14:45 54.8 °F 52.8 °F 30.02 in SSE 1.0 mph 2.0 mph 93% 0.00 in OVC
15:00 55.1 °F 53.1 °F 30.02 in Calm   2.0 mph 93% 0.00 in OVC
15:15 54.7 °F 52.4 °F 30.02 in Calm   5.0 mph 92% 0.00 in OVC
15:30 54.8 °F 52.9 °F 30.02 in Calm   1.0 mph 93% 0.00 in OVC
15:45 55.1 °F 53.1 °F 30.03 in Calm   2.0 mph 93% 0.00 in OVC
16:00 55.5 °F 53.5 °F 30.02 in Calm   2.0 mph 93% 0.00 in OVC
16:15 55.2 °F 53.2 °F 30.03 in NE 1.0 mph 4.0 mph 93% 0.00 in -RA
16:30 55.3 °F 53.3 °F 30.04 in Calm   4.0 mph 93% 0.00 in -RA
16:45 55.1 °F 52.8 °F 30.04 in Calm   3.0 mph 92% 0.00 in -RA
17:00 55.1 °F 52.8 °F 30.04 in Calm   4.0 mph 92% 0.00 in -RA
17:15 55.1 °F 53.1 °F 30.05 in Calm   4.0 mph 93% 0.00 in OVC
17:30 55.0 °F 52.7 °F 30.05 in Calm   4.0 mph 92% 0.00 in OVC
17:45 55.0 °F 52.7 °F 30.06 in Calm   3.0 mph 92% 0.00 in OVC
18:00 54.9 °F 52.6 °F 30.06 in Calm   2.0 mph 92% 0.00 in OVC
18:15 54.8 °F 52.5 °F 30.06 in Calm   3.0 mph 92% 0.00 in OVC
18:30 54.7 °F 52.4 °F 30.06 in Calm   3.0 mph 92% 0.00 in OVC
18:45 54.5 °F 52.2 °F 30.06 in WNW 1.0 mph 3.0 mph 92% 0.00 in OVC
19:00 54.2 °F 52.0 °F 30.07 in Calm   3.0 mph 92% 0.00 in OVC
19:15 54.1 °F 51.8 °F 30.08 in Calm   3.0 mph 92% 0.00 in OVC
19:30 54.1 °F 52.1 °F 30.09 in Calm   3.0 mph 93% 0.00 in OVC
19:45 53.9 °F 51.9 °F 30.09 in Calm   3.0 mph 93% 0.00 in OVC
20:00 53.7 °F 51.7 °F 30.09 in Calm   5.0 mph 93% 0.00 in OVC
20:15 53.7 °F 51.7 °F 30.09 in Calm   2.0 mph 93% 0.00 in OVC
20:30 53.6 °F 51.7 °F 30.08 in Calm   1.0 mph 93% 0.00 in OVC
20:45 53.4 °F 51.7 °F 30.08 in Calm   2.0 mph 94% 0.00 in OVC
21:00 53.4 °F 51.7 °F 30.08 in North 1.0 mph 5.0 mph 94% 0.00 in OVC
21:15 53.4 °F 51.7 °F 30.09 in Calm   2.0 mph 94% 0.00 in OVC
21:30 53.5 °F 51.5 °F 30.10 in Calm   3.0 mph 93% 0.00 in OVC
21:45 53.6 °F 51.6 °F 30.10 in Calm   3.0 mph 93% 0.00 in OVC
22:00 53.6 °F 51.6 °F 30.11 in Calm   2.0 mph 93% 0.00 in OVC
22:15 53.7 °F 52.0 °F 30.11 in Calm   3.0 mph 94% 0.00 in OVC
22:30 53.7 °F 52.0 °F 30.11 in Calm   2.0 mph 94% 0.00 in OVC
22:45 53.7 °F 52.0 °F 30.10 in Calm   4.0 mph 94% 0.00 in OVC
23:00 53.7 °F 51.7 °F 30.10 in Calm   4.0 mph 93% 0.00 in OVC
23:15 53.8 °F 52.1 °F 30.11 in Calm   2.0 mph 94% 0.00 in BKN
23:45 53.8 °F 51.8 °F 30.11 in Calm   2.0 mph 93% 0.00 in BKN
TarryTown NY Weather
Compliments of Weather Underground - 1.5 mb